Churchill Falls, Canada
Current Conditions -  °F | °C
As of 9:30 AM on Sunday 21 Dec 2014 (Local Time) from CZUM Reporting Station
Light Snow Light Snow  
Wind Chill: -18°   Ceiling: 900
Heat Index: -4°   Visibility: 5mi
Dew Point: -8°   Wind: 7mph
Humidity: 85%   Direction: 260°W
Pressure: 30.27"   Gusts: NA
Location:  53.53°N, 64°W
Report Text: CZUM 211330Z AUTO 26006KT 5SM -SN BKN009 M20/M22 A3027 RMK SLP302
Loading
Personal Weather Stations






























Interactive Weather Map New forecast layout! Learn more

10-Day Weather Forecast

Advertisements
Track Severe Weather on mobile